createdAt,value
2019-01-21T00:02:08.623Z,0.40
2019-01-21T00:04:50.438Z,0.40
2019-01-21T00:07:41.493Z,0.40
2019-01-21T00:10:24.832Z,0.50
2019-01-21T00:13:15.790Z,0.40
2019-01-21T00:16:16.628Z,0.40
2019-01-21T00:19:07.662Z,0.40
2019-01-21T00:21:49.337Z,0.30
2019-01-21T00:24:40.290Z,0.40
2019-01-21T00:27:21.714Z,0.40
2019-01-21T00:30:12.730Z,0.50
2019-01-21T00:32:54.576Z,0.50
2019-01-21T00:35:45.525Z,0.50
2019-01-21T00:38:27.307Z,0.50
2019-01-21T00:41:18.265Z,0.60
2019-01-21T00:44:01.593Z,0.70
2019-01-21T00:46:52.562Z,0.40
2019-01-21T00:49:34.667Z,0.20
2019-01-21T00:52:25.692Z,0.30
2019-01-21T00:55:08.146Z,0.30
2019-01-21T00:57:59.156Z,0.30
2019-01-21T01:00:41.081Z,0.40
2019-01-21T01:03:32.092Z,0.40
2019-01-21T01:06:13.762Z,0.40
2019-01-21T01:09:06.334Z,0.30
2019-01-21T01:11:49.788Z,0.20
2019-01-21T01:14:40.784Z,0.00
2019-01-21T01:17:22.750Z,0.00
2019-01-21T01:20:15.816Z,-0.10
2019-01-21T01:22:59.053Z,-0.20
2019-01-21T01:25:49.991Z,-0.10
2019-01-21T01:28:31.815Z,0.00
2019-01-21T01:31:13.308Z,0.10
2019-01-21T01:33:54.737Z,0.30
2019-01-21T01:36:45.652Z,0.30
2019-01-21T01:39:29.054Z,0.30
2019-01-21T01:42:20.012Z,0.30
2019-01-21T01:45:01.693Z,0.50
2019-01-21T01:47:44.864Z,0.60
2019-01-21T01:50:36.026Z,0.40
2019-01-21T01:53:17.742Z,0.60
2019-01-21T01:56:08.951Z,0.40
2019-01-21T01:58:50.864Z,0.20
2019-01-21T02:01:41.863Z,0.20
2019-01-21T02:04:23.828Z,0.20
2019-01-21T02:07:05.327Z,0.40
2019-01-21T02:09:56.258Z,0.40
2019-01-21T02:12:38.097Z,0.30
2019-01-21T02:15:29.025Z,0.30
2019-01-21T02:18:10.849Z,0.10
2019-01-21T02:21:02.686Z,0.20
2019-01-21T02:23:46.007Z,0.10
2019-01-21T02:26:59.621Z,0.10
2019-01-21T02:30:02.229Z,0.20
2019-01-21T02:33:03.649Z,0.20
2019-01-21T02:36:32.911Z,0.20
2019-01-21T02:39:41.614Z,0.30
2019-01-21T02:43:18.436Z,0.40
2019-01-21T02:46:31.131Z,0.40
2019-01-21T02:50:21.051Z,0.40
2019-01-21T02:53:44.015Z,0.40
2019-01-21T02:56:44.212Z,0.60
2019-01-21T03:00:13.829Z,0.40
2019-01-21T03:03:39.937Z,0.50
2019-01-21T03:06:42.483Z,0.60
2019-01-21T03:10:25.136Z,0.80
2019-01-21T03:13:33.063Z,0.80
2019-01-21T03:17:02.390Z,1.00
2019-01-21T03:20:04.809Z,1.00
2019-01-21T03:23:04.898Z,1.00
2019-01-21T03:26:20.314Z,0.90
2019-01-21T03:29:28.798Z,0.80
2019-01-21T03:32:49.200Z,0.90
2019-01-21T03:36:18.399Z,0.80
2019-01-21T03:39:41.298Z,0.80
2019-01-21T03:43:10.547Z,0.80
2019-01-21T03:46:12.249Z,0.90
2019-01-21T03:49:04.638Z,0.90
2019-01-21T03:52:33.869Z,0.90
2019-01-21T03:55:17.059Z,0.90
2019-01-21T03:58:46.321Z,0.80
2019-01-21T04:01:47.474Z,0.80
2019-01-21T04:04:47.523Z,0.80
2019-01-21T04:08:16.785Z,0.80
2019-01-21T04:11:17.970Z,0.90
2019-01-21T04:14:38.110Z,0.90
2019-01-21T04:17:55.172Z,0.80
2019-01-21T04:20:55.369Z,0.60
2019-01-21T04:24:13.357Z,0.80
2019-01-21T04:27:05.288Z,0.80
2019-01-21T04:30:34.492Z,0.90
2019-01-21T04:33:54.733Z,1.00
2019-01-21T04:37:00.540Z,0.90
2019-01-21T04:40:07.240Z,0.80
2019-01-21T04:43:36.474Z,0.90
2019-01-21T04:46:57.651Z,0.80
2019-01-21T04:50:26.945Z,0.70
2019-01-21T04:53:51.953Z,0.80
2019-01-21T04:57:21.212Z,0.70
2019-01-21T05:00:30.019Z,0.80
2019-01-21T05:03:53.540Z,0.80
2019-01-21T05:07:12.484Z,0.70
2019-01-21T05:10:41.712Z,0.80
2019-01-21T05:13:51.013Z,0.80
2019-01-21T05:17:04.994Z,0.70
2019-01-21T05:23:29.345Z,0.60
2019-01-21T05:26:21.573Z,0.60
2019-01-21T05:30:00.551Z,0.60
2019-01-21T05:33:09.104Z,0.60
2019-01-21T05:36:38.364Z,0.30
2019-01-21T05:39:37.110Z,0.40
2019-01-21T05:42:29.469Z,0.30
2019-01-21T05:45:58.571Z,0.10
2019-01-21T05:49:04.180Z,0.20
2019-01-21T05:52:33.463Z,0.00
2019-01-21T05:55:53.637Z,-0.10
2019-01-21T05:59:22.932Z,-0.30
2019-01-21T06:02:23.342Z,-0.20
2019-01-21T06:05:23.034Z,-0.30
2019-01-21T06:08:58.007Z,-0.30
2019-01-21T06:15:36.033Z,-0.30
2019-01-21T06:19:05.313Z,-0.20
2019-01-21T06:22:07.911Z,-0.40
2019-01-21T06:25:37.229Z,-0.10
2019-01-21T06:28:51.854Z,-0.10
2019-01-21T06:32:16.565Z,-0.10
2019-01-21T06:35:36.734Z,-0.20
2019-01-21T06:39:06.023Z,-0.20
2019-01-21T06:42:28.822Z,-0.20
2019-01-21T06:45:58.131Z,-0.20
2019-01-21T06:49:27.485Z,-0.10
2019-01-21T06:52:44.645Z,-0.20
2019-01-21T06:55:49.458Z,-0.40
2019-01-21T06:59:07.951Z,-0.30
2019-01-21T07:02:30.866Z,-0.30
2019-01-21T07:06:05.791Z,-0.20
2019-01-21T07:09:08.440Z,-0.30
2019-01-21T07:12:31.843Z,-0.40
2019-01-21T07:16:01.093Z,-0.30
2019-01-21T07:19:30.193Z,-0.20
2019-01-21T07:22:44.785Z,-0.30
2019-01-21T07:29:04.507Z,-0.40
2019-01-21T07:32:28.848Z,-0.40
2019-01-21T07:36:03.705Z,-0.50
2019-01-21T07:42:15.965Z,-0.50
2019-01-21T07:45:24.359Z,-0.50
2019-01-21T12:56:04.485Z,4.30
2019-01-21T13:07:27.268Z,4.20
2019-01-21T13:28:22.421Z,4.00
2019-01-21T19:01:07.844Z,1.00
2019-01-21T19:03:49.357Z,1.10
2019-01-21T19:06:40.349Z,1.20
2019-01-21T19:09:30.420Z,1.30
2019-01-21T19:12:22.855Z,1.30
2019-01-21T19:15:08.274Z,1.20
2019-01-21T19:17:59.384Z,1.10
2019-01-21T19:20:41.095Z,0.90
2019-01-21T19:23:32.012Z,1.00
2019-01-21T19:26:15.410Z,1.00
2019-01-21T19:30:55.065Z,0.70
2019-01-21T19:33:26.986Z,0.70
2019-01-21T19:35:58.886Z,0.70
2019-01-21T19:38:30.777Z,0.80
2019-01-21T19:41:02.863Z,0.90
2019-01-21T19:43:34.799Z,0.90
2019-01-21T19:46:06.792Z,0.80
2019-01-21T19:48:38.645Z,0.50
2019-01-21T19:51:10.565Z,0.50
2019-01-21T19:53:42.438Z,0.40
2019-01-21T19:56:14.323Z,0.30
2019-01-21T19:58:46.191Z,0.40
2019-01-21T20:01:18.084Z,0.40
2019-01-21T20:03:49.937Z,0.40
2019-01-21T20:06:21.829Z,0.40
2019-01-21T20:08:53.803Z,0.40
2019-01-21T20:11:25.690Z,0.40
2019-01-21T20:13:57.556Z,0.20
2019-01-21T20:16:29.446Z,0.20
2019-01-21T20:19:01.306Z,0.20
2019-01-21T20:21:33.301Z,0.20
2019-01-21T20:24:05.171Z,0.20
2019-01-21T20:26:37.092Z,0.20
2019-01-21T20:29:08.988Z,0.00
2019-01-21T20:31:41.324Z,0.00
2019-01-21T20:34:13.181Z,0.00
2019-01-21T20:36:45.146Z,0.10
2019-01-21T20:39:17.027Z,0.20
2019-01-21T20:41:48.987Z,0.20
2019-01-21T20:44:20.831Z,0.10
2019-01-21T20:46:53.638Z,0.10
2019-01-21T20:49:26.116Z,0.10
2019-01-21T20:51:58.499Z,0.00
2019-01-21T20:54:30.435Z,0.00
2019-01-21T20:57:02.426Z,0.00
2019-01-21T20:59:34.283Z,0.00
2019-01-21T21:02:06.262Z,0.20
2019-01-21T21:04:38.100Z,0.20
2019-01-21T21:07:10.097Z,0.20
2019-01-21T21:09:41.945Z,0.20
2019-01-21T21:12:13.863Z,0.30
2019-01-21T21:14:45.712Z,0.30
2019-01-21T21:17:17.693Z,0.50
2019-01-21T21:19:50.134Z,0.50
2019-01-21T21:22:22.215Z,0.40
2019-01-21T21:24:54.495Z,0.20
2019-01-21T21:27:27.025Z,0.10
2019-01-21T21:30:00.273Z,0.10
2019-01-21T21:32:32.711Z,0.00
2019-01-21T21:35:05.281Z,0.10
2019-01-21T21:37:38.687Z,0.00
2019-01-21T21:40:18.640Z,0.00
2019-01-21T21:43:03.191Z,0.10
2019-01-21T21:45:29.464Z,0.10
2019-01-21T21:48:01.474Z,0.00
2019-01-21T21:50:34.243Z,0.00
2019-01-21T21:53:06.312Z,0.00
2019-01-21T21:55:39.044Z,0.00
2019-01-21T21:58:11.267Z,-0.10
2019-01-21T22:00:43.215Z,-0.10
2019-01-21T22:03:15.105Z,-0.30
2019-01-21T22:05:46.991Z,-0.40
2019-01-21T22:08:19.374Z,-0.40
2019-01-21T22:10:51.384Z,-0.20
2019-01-21T22:13:23.773Z,0.00
2019-01-21T22:15:55.630Z,0.00
2019-01-21T22:18:27.617Z,0.00
2019-01-21T22:20:59.474Z,-0.20
2019-01-21T22:23:31.475Z,-0.20
2019-01-21T22:26:03.339Z,-0.30
2019-01-21T22:28:35.216Z,-0.40
2019-01-21T22:31:07.091Z,-0.70
2019-01-21T22:33:39.046Z,-0.80
2019-01-21T22:36:10.911Z,-0.80
2019-01-21T22:38:43.215Z,-0.70
2019-01-21T22:41:15.318Z,-0.60
2019-01-21T22:43:47.242Z,-0.50
2019-01-21T22:46:19.191Z,-0.50
2019-01-21T22:48:51.105Z,-0.50
2019-01-21T22:51:23.354Z,-0.40
2019-01-21T22:53:55.274Z,-0.20
2019-01-21T22:56:27.143Z,-0.20
2019-01-21T22:58:59.044Z,-0.20
2019-01-21T23:01:34.059Z,-0.10
2019-01-21T23:04:06.474Z,-0.10
2019-01-21T23:06:38.229Z,-0.10
2019-01-21T23:09:10.951Z,0.00
2019-01-21T23:11:42.802Z,0.00
2019-01-21T23:14:14.697Z,0.10
2019-01-21T23:16:46.547Z,0.10
2019-01-21T23:19:18.429Z,0.20
2019-01-21T23:21:50.285Z,0.20
2019-01-21T23:24:22.171Z,0.10
2019-01-21T23:26:54.005Z,0.20
2019-01-21T23:29:25.915Z,0.30
2019-01-21T23:31:57.785Z,0.20
2019-01-21T23:34:30.166Z,0.20
2019-01-21T23:37:02.056Z,0.20
2019-01-21T23:39:33.960Z,0.30
2019-01-21T23:42:05.802Z,0.30
2019-01-21T23:44:38.027Z,0.30
2019-01-21T23:47:09.868Z,0.20
2019-01-21T23:49:41.752Z,0.20
2019-01-21T23:52:13.610Z,0.00
2019-01-21T23:54:45.504Z,-0.20
2019-01-21T23:57:17.659Z,-0.30
2019-01-21T23:59:49.538Z,-0.30
